Hundvaag 1 weather for Oct 2001
Month no. 172
Obs.
Da.
Temp. Dew Point Precip. Wind
Speed
Wind gusts Cloud cover Press. Humidity Wind dir. Sunny OPT
01.10.2001 13,6   7,9     0 997,5        
02.10.2001 12,7   27,5     3 997,3     1  
03.10.2001 12,9   1,0     0 997,6        
04.10.2001 11,8   1,2     1 1002,8     1  
05.10.2001 8,6   1,2     4 1008,5     1  
06.10.2001 14,3   0,3     1 1007,9        
07.10.2001 13,1   8,5     4 1004,0     1  
08.10.2001 13,7   5,6     0 1001,6        
09.10.2001 12,1   15,4     0 1001,5        
10.10.2001 11,3   11,5     1 1006,0        
11.10.2001 9,1   21,5     2 1014,3     1  
12.10.2001 12,9   6,8     0 1012,3        
13.10.2001 13,3   0,9     0 1013,2        
14.10.2001 9,6   2,0     9 1016,5     1  
15.10.2001 15,1   0,0     1 1012,1        
16.10.2001 14,2   13,8     0 1012,8     1  
17.10.2001 6,8   6,0     10 1020,0     1  
18.10.2001 8,3   0,0     10 1018,0     1  
19.10.2001 7,2   0,0     0 1017,1     1  
20.10.2001 11,2   0,0     0 1015,7     1  
21.10.2001 8,3   0,0     8 1013,1     1  
22.10.2001 10,3   0,0     5 1013,3     1  
23.10.2001 7,0   0,0     10 1018,3        
24.10.2001 9,6   0,2     0 1017,2        
25.10.2001 10,4   2,4     0 1014,9     1  
26.10.2001 12,4   9,0     0 1010,3        
27.10.2001 10,4   13,5     0 1005,3        
28.10.2001 9,9   9,8     4 1010,8        
29.10.2001 9,4   4,9     0 1009,1        
30.10.2001 9,9   17,8     3 1004,1        
31.10.2001 10,3   9,5     0 995,9     1  
Avrg/Sum 11,0   198,2     2,5 1009,3     15